Time;durP1;ratioP1;P1;durP2;ratioP2;P2;SDS_P1;SDS_P2;PMS_P1;PMS_P2;Temp;Humidity;BMP_temperature;BMP_pressure;BME280_temperature;BME280_humidity;BME280_pressure;Samples;Min_cycle;Max_cycle;Signal;HPM_P1;HPM_P2
2024/03/16 00:00:43;;;;;;;0.77;0.50;;;10.10;99.90;;;;;;5077380;28;20401;-84
2024/03/16 00:03:09;;;;;;;1.10;0.60;;;10.20;99.90;;;;;;5063129;28;20401;-85
2024/03/16 00:05:36;;;;;;;1.30;0.80;;;10.20;99.90;;;;;;5083291;28;20397;-85
2024/03/16 00:08:02;;;;;;;1.20;0.60;;;10.30;99.90;;;;;;5096134;28;20739;-85
2024/03/16 00:10:28;;;;;;;2.00;0.90;;;10.40;99.90;;;;;;5065942;28;20406;-86
2024/03/16 00:12:53;;;;;;;1.30;0.70;;;10.20;99.90;;;;;;5070051;28;20403;-85
2024/03/16 00:15:19;;;;;;;1.90;1.00;;;10.50;99.90;;;;;;5086250;28;20742;-83
2024/03/16 00:17:45;;;;;;;0.70;0.70;;;11.30;99.90;;;;;;5101320;28;20409;-85
2024/03/16 00:20:10;;;;;;;1.83;0.70;;;10.70;99.90;;;;;;5101397;28;20374;-84
2024/03/16 00:22:37;;;;;;;2.40;0.80;;;11.40;99.90;;;;;;5101979;28;20715;-86
2024/03/16 00:25:04;;;;;;;1.88;0.80;;;11.20;99.90;;;;;;5096865;28;20467;-85
2024/03/16 00:27:29;;;;;;;1.70;0.80;;;11.50;99.90;;;;;;5103068;28;20397;-85
2024/03/16 00:29:55;;;;;;;1.60;1.10;;;11.50;99.90;;;;;;5097502;28;20378;-84
2024/03/16 00:32:21;;;;;;;1.70;1.00;;;11.30;99.90;;;;;;5095536;28;20398;-85
2024/03/16 00:34:47;;;;;;;1.40;0.85;;;11.10;99.90;;;;;;5093551;28;20473;-85
2024/03/16 00:37:13;;;;;;;2.95;0.90;;;10.50;99.90;;;;;;5099483;28;20465;-83
2024/03/16 00:39:39;;;;;;;1.73;1.35;;;11.10;99.90;;;;;;5094526;28;20469;-86
2024/03/16 00:42:05;;;;;;;1.50;1.10;;;11.20;99.90;;;;;;5095192;28;20382;-85
2024/03/16 00:44:31;;;;;;;1.70;1.00;;;11.20;99.90;;;;;;5074497;28;20395;-85
2024/03/16 00:46:56;;;;;;;1.63;0.82;;;11.10;99.90;;;;;;5080781;28;20400;-86
2024/03/16 00:49:22;;;;;;;1.50;0.80;;;11.10;99.90;;;;;;5095518;28;20397;-85
2024/03/16 00:51:50;;;;;;;2.10;0.83;;;11.00;99.90;;;;;;5094690;28;20457;-85
2024/03/16 00:54:15;;;;;;;2.40;0.98;;;13.60;99.90;;;;;;5095700;28;20477;-84
2024/03/16 00:56:41;;;;;;;2.30;1.30;;;11.00;99.90;;;;;;5096941;28;20467;-86
2024/03/16 00:59:07;;;;;;;2.38;1.00;;;11.10;99.90;;;;;;5096659;28;20409;-85
2024/03/16 01:01:36;;;;;;;4.40;1.20;;;11.20;99.90;;;;;;5097746;28;20386;-84
2024/03/16 01:04:02;;;;;;;3.08;1.15;;;11.20;99.90;;;;;;5095871;28;20417;-84
2024/03/16 01:06:28;;;;;;;3.80;1.30;;;11.20;99.90;;;;;;5096240;28;20970;-84
2024/03/16 01:08:53;;;;;;;2.45;1.10;;;11.20;99.90;;;;;;5098454;28;20394;-84
2024/03/16 01:11:19;;;;;;;3.03;1.30;;;11.00;99.90;;;;;;5100726;28;20440;-83
2024/03/16 01:13:45;;;;;;;3.20;1.30;;;10.60;99.90;;;;;;5100343;28;20398;-84
2024/03/16 01:16:10;;;;;;;2.10;1.30;;;11.10;99.90;;;;;;5099691;28;20467;-85
2024/03/16 01:18:39;;;;;;;4.57;1.48;;;10.00;99.90;;;;;;5101898;28;20385;-84
2024/03/16 01:21:06;;;;;;;3.10;1.20;;;11.30;99.90;;;;;;5102582;28;20410;-84
2024/03/16 01:23:33;;;;;;;3.33;1.40;;;11.20;99.90;;;;;;5110039;28;20390;-84
2024/03/16 01:25:59;;;;;;;2.08;1.25;;;11.30;99.90;;;;;;5075744;28;20404;-86
2024/03/16 01:28:24;;;;;;;3.80;1.27;;;11.20;99.90;;;;;;5067804;28;20527;-85
2024/03/16 01:30:50;;;;;;;3.30;1.40;;;11.30;99.90;;;;;;5090514;28;20396;-84
2024/03/16 01:33:15;;;;;;;2.60;1.00;;;11.30;99.90;;;;;;5100929;28;20424;-85
2024/03/16 01:38:10;;;;;;;3.03;1.52;;;11.20;99.90;;;;;;5058651;28;20455;-87
2024/03/16 01:40:36;;;;;;;2.90;1.50;;;11.50;99.90;;;;;;5041397;28;20386;-85
2024/03/16 01:43:02;;;;;;;3.50;1.20;;;11.40;99.90;;;;;;5040847;28;20500;-85
2024/03/16 01:45:28;;;;;;;2.80;1.50;;;11.50;99.90;;;;;;5039992;28;20464;-84
2024/03/16 01:47:54;;;;;;;2.58;1.50;;;11.40;99.90;;;;;;5040150;28;20383;-85
2024/03/16 01:50:23;;;;;;;4.60;1.43;;;11.40;99.90;;;;;;5038773;28;20394;-85
2024/03/16 01:52:49;;;;;;;3.72;1.70;;;11.60;99.90;;;;;;5040874;28;20894;-85
2024/03/16 01:55:16;;;;;;;3.30;1.70;;;11.60;99.90;;;;;;5053334;28;20414;-85
2024/03/16 01:57:42;;;;;;;4.63;1.60;;;11.60;99.90;;;;;;5062023;28;20480;-86
2024/03/16 02:00:11;;;;;;;3.80;1.70;;;11.50;99.90;;;;;;5063135;28;20382;-85
2024/03/16 02:02:38;;;;;;;2.78;1.85;;;11.50;99.90;;;;;;5060929;28;20385;-85
2024/03/16 02:05:05;;;;;;;2.70;1.30;;;11.60;99.90;;;;;;5061407;28;20453;-85
2024/03/16 02:07:34;;;;;;;3.97;1.60;;;11.70;99.90;;;;;;5041903;28;20377;-84
2024/03/16 02:10:00;;;;;;;2.08;1.50;;;11.70;99.90;;;;;;5062823;28;20387;-85
2024/03/16 02:12:26;;;;;;;3.70;1.70;;;10.30;99.90;;;;;;5081155;28;20387;-86
2024/03/16 02:14:52;;;;;;;3.38;1.60;;;11.60;99.90;;;;;;5060917;28;20404;-85
2024/03/16 02:17:18;;;;;;;2.70;1.20;;;11.70;99.90;;;;;;5061076;28;20392;-84
2024/03/16 02:19:47;;;;;;;2.83;1.30;;;11.60;99.90;;;;;;5061081;28;20445;-84
2024/03/16 02:22:13;;;;;;;2.25;1.10;;;11.70;99.90;;;;;;5061221;28;20486;-85
2024/03/16 02:24:38;;;;;;;5.03;1.97;;;11.60;99.90;;;;;;5071744;28;20492;-84
2024/03/16 02:27:04;;;;;;;3.30;1.40;;;11.60;99.90;;;;;;5076680;28;20835;-85
2024/03/16 02:29:32;;;;;;;3.53;1.52;;;11.60;99.90;;;;;;5078114;28;20396;-85
2024/03/16 02:31:58;;;;;;;5.00;2.10;;;11.70;99.90;;;;;;5054584;28;20512;-85
2024/03/16 02:34:24;;;;;;;3.83;1.70;;;11.70;99.90;;;;;;5060261;28;20432;-86
2024/03/16 02:36:49;;;;;;;6.30;1.63;;;11.50;99.90;;;;;;5064584;28;20433;-85
2024/03/16 02:39:16;;;;;;;4.40;1.60;;;11.60;99.90;;;;;;5078652;28;20411;-86
2024/03/16 02:41:42;;;;;;;3.60;1.90;;;11.60;99.90;;;;;;5080503;28;20739;-86
2024/03/16 02:44:09;;;;;;;5.18;1.80;;;11.10;99.90;;;;;;5061158;28;20376;-83
2024/03/16 02:46:34;;;;;;;4.85;1.55;;;11.60;99.90;;;;;;5059577;28;20421;-84
2024/03/16 02:49:00;;;;;;;4.57;1.50;;;;;;;;;;5077869;28;20537;-85
2024/03/16 02:51:26;;;;;;;3.38;1.80;;;11.60;99.90;;;;;;5060684;28;20380;-86
2024/03/16 02:53:55;;;;;;;3.05;1.88;;;11.50;99.90;;;;;;5079426;28;20408;-86
2024/03/16 02:56:21;;;;;;;1.73;1.20;;;11.50;99.90;;;;;;5059136;28;20396;-85
2024/03/16 02:58:46;;;;;;;4.50;1.70;;;11.60;99.90;;;;;;5058525;28;20445;-85
2024/03/16 03:01:13;;;;;;;3.70;1.45;;;11.70;99.90;;;;;;5063841;28;20388;-84
2024/03/16 03:03:38;;;;;;;3.17;1.40;;;11.60;99.90;;;;;;5060550;28;20482;-84
2024/03/16 03:06:04;;;;;;;2.20;1.40;;;11.70;99.90;;;;;;5078669;28;20511;-84
2024/03/16 03:08:33;;;;;;;5.10;1.50;;;11.60;99.90;;;;;;5059429;28;20755;-85
2024/03/16 03:10:59;;;;;;;1.70;1.05;;;11.60;99.90;;;;;;5068902;28;20403;-84
2024/03/16 03:13:24;;;;;;;1.37;0.90;;;11.50;99.90;;;;;;5069418;28;20423;-84
2024/03/16 03:15:50;;;;;;;2.03;0.80;;;11.50;99.90;;;;;;5087083;28;20849;-85
2024/03/16 03:18:16;;;;;;;1.20;0.80;;;11.40;99.90;;;;;;5062255;28;20398;-85
2024/03/16 03:20:41;;;;;;;1.40;0.60;;;11.40;99.90;;;;;;5080857;28;20384;-85
2024/03/16 03:23:10;;;;;;;2.30;0.80;;;11.30;99.90;;;;;;5061463;28;20451;-85
2024/03/16 03:25:35;;;;;;;1.83;0.60;;;11.30;99.90;;;;;;5045209;28;20473;-85
2024/03/16 03:28:01;;;;;;;1.40;0.80;;;11.30;99.90;;;;;;5040705;28;20417;-85
2024/03/16 03:30:27;;;;;;;1.10;0.70;;;11.30;99.90;;;;;;5049714;28;20958;-85
2024/03/16 03:32:52;;;;;;;1.20;0.50;;;10.70;99.90;;;;;;5058634;28;20478;-85
2024/03/16 03:35:18;;;;;;;1.60;0.70;;;11.20;99.90;;;;;;5040051;28;20390;-84
2024/03/16 03:37:43;;;;;;;0.73;0.57;;;11.10;99.90;;;;;;5022616;28;20403;-85
2024/03/16 03:40:09;;;;;;;0.80;0.55;;;11.20;99.90;;;;;;5025617;28;20469;-85
2024/03/16 03:42:35;;;;;;;1.00;0.60;;;11.20;99.90;;;;;;5058086;28;20409;-84
2024/03/16 03:45:11;;;;;;;2.30;0.70;;;11.10;99.90;;;;;;5062305;28;20395;-84
2024/03/16 03:50:28;;;;;;;1.17;0.70;;;11.00;99.90;;;;;;5056134;28;20432;-84
2024/03/16 03:53:02;;;;;;;1.50;0.60;;;11.20;99.90;;;;;;5038470;28;20403;-85
2024/03/16 03:55:28;;;;;;;1.10;0.70;;;11.10;99.90;;;;;;5029288;28;20399;-84
2024/03/16 03:57:53;;;;;;;2.03;0.63;;;11.20;99.90;;;;;;5043118;28;20398;-85
2024/03/16 04:00:19;;;;;;;2.20;0.90;;;11.30;99.90;;;;;;5076090;28;20387;-85
2024/03/16 04:02:45;;;;;;;1.05;0.70;;;11.30;99.90;;;;;;5042481;28;20436;-84
2024/03/16 04:05:12;;;;;;;0.80;0.80;;;11.00;99.90;;;;;;5056259;28;20398;-84
2024/03/16 04:07:37;;;;;;;2.10;0.70;;;11.30;99.90;;;;;;5026773;28;20411;-84
2024/03/16 04:10:04;;;;;;;1.43;0.80;;;11.30;99.90;;;;;;5063084;28;20634;-84
2024/03/16 04:12:30;;;;;;;2.30;0.90;;;11.30;99.90;;;;;;5064280;28;20415;-84
2024/03/16 04:14:56;;;;;;;1.37;0.60;;;11.30;99.90;;;;;;5065385;28;20409;-84
2024/03/16 04:17:21;;;;;;;1.00;0.80;;;10.80;99.90;;;;;;5046771;28;20423;-83
2024/03/16 04:19:47;;;;;;;2.43;0.70;;;11.30;99.90;;;;;;5051051;28;20388;-85
2024/03/16 04:22:16;;;;;;;2.43;0.90;;;11.30;99.90;;;;;;5060122;28;20413;-84
2024/03/16 04:24:41;;;;;;;2.00;0.70;;;11.40;99.90;;;;;;5044869;28;20484;-85
2024/03/16 04:27:07;;;;;;;2.30;1.20;;;11.20;99.90;;;;;;5044560;28;20504;-85
2024/03/16 04:29:33;;;;;;;3.08;1.20;;;11.30;99.90;;;;;;5045436;28;20381;-84
2024/03/16 04:32:01;;;;;;;1.80;0.80;;;12.70;99.90;;;;;;5062247;28;20404;-83
2024/03/16 04:34:27;;;;;;;1.90;0.80;;;11.40;99.90;;;;;;5036249;28;20461;-83
2024/03/16 04:36:53;;;;;;;1.90;1.17;;;11.50;99.90;;;;;;5059733;28;20505;-84
2024/03/16 04:39:22;;;;;;;2.63;0.70;;;11.40;99.90;;;;;;5055632;28;20389;-84
2024/03/16 04:41:51;;;;;;;3.20;1.13;;;11.40;99.90;;;;;;5058182;28;20378;-84
2024/03/16 04:44:17;;;;;;;2.97;1.17;;;11.50;99.90;;;;;;5043354;28;20389;-85
2024/03/16 04:46:43;;;;;;;2.60;1.20;;;10.70;99.90;;;;;;5060103;28;20461;-84
2024/03/16 04:49:08;;;;;;;3.80;0.90;;;11.50;99.90;;;;;;5058808;28;20968;-84
2024/03/16 04:51:34;;;;;;;3.20;1.20;;;10.70;99.90;;;;;;5061533;28;20397;-82
2024/03/16 04:54:01;;;;;;;2.45;1.05;;;11.50;99.90;;;;;;5042222;28;20482;-84
2024/03/16 04:56:27;;;;;;;2.75;1.10;;;11.50;99.90;;;;;;5059560;28;20397;-84
2024/03/16 04:58:52;;;;;;;7.07;2.28;;;11.40;99.90;;;;;;5033202;28;20889;-84
2024/03/16 05:01:18;;;;;;;3.15;1.63;;;10.90;99.90;;;;;;5040818;28;20389;-84
2024/03/16 05:03:44;;;;;;;4.80;1.53;;;11.40;99.90;;;;;;5058960;28;20381;-84
2024/03/16 05:06:09;;;;;;;4.03;1.23;;;11.40;99.90;;;;;;5061270;28;20389;-82
2024/03/16 05:08:34;;;;;;;3.47;1.45;;;11.40;99.90;;;;;;5050019;28;20389;-83
2024/03/16 05:11:00;;;;;;;4.20;1.50;;;11.40;99.90;;;;;;5051642;28;20386;-82
2024/03/16 05:13:28;;;;;;;3.87;1.50;;;11.30;99.90;;;;;;5051308;28;20401;-83
2024/03/16 05:15:54;;;;;;;5.07;1.40;;;11.40;99.90;;;;;;5057902;28;20393;-84
2024/03/16 05:18:20;;;;;;;3.20;1.50;;;10.70;99.90;;;;;;5059407;28;20408;-84
2024/03/16 05:20:46;;;;;;;3.95;1.88;;;11.20;99.90;;;;;;5045218;28;20405;-84
2024/03/16 05:23:12;;;;;;;3.40;1.45;;;11.30;99.90;;;;;;5049556;28;20399;-84
2024/03/16 05:25:38;;;;;;;5.85;1.50;;;11.30;99.90;;;;;;5051528;28;20393;-84
2024/03/16 05:28:04;;;;;;;2.77;1.30;;;10.70;99.90;;;;;;5061243;28;20385;-85
2024/03/16 05:30:31;;;;;;;6.30;1.92;;;11.00;99.90;;;;;;5060792;28;21186;-85
2024/03/16 05:32:57;;;;;;;5.18;1.80;;;11.00;99.90;;;;;;5041744;28;20418;-85
2024/03/16 05:35:27;;;;;;;6.25;2.38;;;10.90;99.90;;;;;;5046764;28;20407;-84
2024/03/16 05:37:53;;;;;;;5.30;2.03;;;10.10;99.90;;;;;;5070422;28;20457;-86
2024/03/16 05:40:18;;;;;;;5.10;1.67;;;10.80;99.90;;;;;;5045585;28;20439;-85
2024/03/16 05:42:44;;;;;;;6.20;1.30;;;10.60;99.90;;;;;;5064397;28;20882;-85
2024/03/16 05:45:09;;;;;;;4.32;1.60;;;10.70;99.90;;;;;;5069205;28;20417;-85
2024/03/16 05:47:36;;;;;;;6.20;1.80;;;13.10;99.90;;;;;;5063935;28;20413;-84
2024/03/16 05:50:02;;;;;;;3.60;1.38;;;10.70;99.90;;;;;;5058117;28;20408;-84
2024/03/16 05:52:29;;;;;;;3.70;1.60;;;10.80;99.90;;;;;;5059899;28;20396;-84
2024/03/16 05:54:54;;;;;;;5.27;1.60;;;10.70;99.90;;;;;;5061234;28;20409;-84
2024/03/16 05:57:20;;;;;;;3.57;1.37;;;10.80;99.90;;;;;;5060665;28;20877;-84
2024/03/16 05:59:45;;;;;;;6.47;1.83;;;10.70;99.90;;;;;;5044209;28;20386;-85
2024/03/16 06:02:11;;;;;;;4.07;1.60;;;10.80;99.90;;;;;;5061128;28;20457;-85
2024/03/16 06:04:37;;;;;;;7.22;1.50;;;11.00;99.90;;;;;;5059078;28;20427;-84
2024/03/16 06:07:02;;;;;;;3.50;1.50;;;10.90;99.90;;;;;;5061603;28;20395;-84
2024/03/16 06:09:28;;;;;;;5.22;1.80;;;11.00;99.90;;;;;;5047579;28;20408;-83
2024/03/16 06:11:54;;;;;;;5.50;1.73;;;10.50;99.90;;;;;;5047636;28;21012;-85
2024/03/16 06:14:20;;;;;;;3.45;1.42;;;10.80;99.90;;;;;;5040987;28;20407;-84
2024/03/16 06:16:45;;;;;;;3.25;1.40;;;11.10;99.90;;;;;;5041498;28;20392;-85
2024/03/16 06:19:12;;;;;;;3.00;1.40;;;10.60;99.90;;;;;;5060324;28;20381;-85
2024/03/16 06:21:38;;;;;;;4.32;1.13;;;11.20;99.90;;;;;;5039782;28;20393;-85
2024/03/16 06:24:04;;;;;;;4.63;1.30;;;11.20;99.90;;;;;;5054151;28;20407;-86
2024/03/16 06:26:36;;;;;;;5.38;1.30;;;11.50;99.90;;;;;;5052573;28;20476;-86
2024/03/16 06:29:08;;;;;;;5.70;1.67;;;10.80;99.90;;;;;;5038563;28;20393;-84
2024/03/16 06:31:43;;;;;;;4.50;1.50;;;11.10;99.90;;;;;;5053079;28;20480;-85
2024/03/16 06:34:08;;;;;;;4.15;1.50;;;11.10;99.90;;;;;;5042010;28;20405;-84
2024/03/16 06:36:34;;;;;;;3.63;1.60;;;11.00;99.90;;;;;;5051995;28;20404;-84
2024/03/16 06:39:00;;;;;;;4.28;1.55;;;10.90;99.90;;;;;;5059391;28;20468;-85
2024/03/16 06:41:26;;;;;;;4.20;1.33;;;11.00;99.90;;;;;;5032707;28;20429;-85
2024/03/16 06:43:52;;;;;;;2.55;1.30;;;10.90;99.90;;;;;;5039750;28;20476;-85
2024/03/16 06:46:18;;;;;;;5.85;1.42;;;10.10;99.90;;;;;;5036906;28;20433;-86
2024/03/16 06:48:43;;;;;;;4.90;1.80;;;10.90;99.90;;;;;;5057673;28;20378;-85
2024/03/16 06:51:09;;;;;;;5.57;1.40;;;10.90;99.90;;;;;;5050646;28;20425;-86
2024/03/16 06:53:35;;;;;;;6.03;1.20;;;10.10;99.90;;;;;;5052414;28;20407;-85
2024/03/16 06:56:03;;;;;;;7.75;1.80;;;10.70;99.90;;;;;;5040648;28;20401;-86
2024/03/16 06:58:30;;;;;;;2.75;1.00;;;10.50;99.90;;;;;;5039654;28;20393;-85
2024/03/16 07:00:56;;;;;;;3.08;1.35;;;10.80;99.90;;;;;;5048489;28;20389;-85
2024/03/16 07:03:22;;;;;;;2.80;1.10;;;10.40;99.90;;;;;;5043428;28;20920;-85
2024/03/16 07:05:47;;;;;;;3.33;1.00;;;10.90;99.90;;;;;;5055915;28;20397;-86
2024/03/16 07:08:16;;;;;;;1.50;0.90;;;10.50;99.90;;;;;;5042319;28;20393;-86
2024/03/16 07:10:45;;;;;;;4.20;1.02;;;10.80;99.90;;;;;;5040669;28;20770;-84
2024/03/16 07:13:11;;;;;;;3.30;1.60;;;10.90;99.90;;;;;;5034845;28;20492;-84
2024/03/16 07:15:36;;;;;;;2.15;0.73;;;10.80;99.90;;;;;;5037601;28;20412;-84
2024/03/16 07:18:03;;;;;;;3.10;1.50;;;10.90;99.90;;;;;;5052667;28;20901;-84
2024/03/16 07:20:30;;;;;;;3.27;1.20;;;11.10;99.90;;;;;;5057961;28;20460;-84
2024/03/16 07:22:56;;;;;;;4.35;1.30;;;11.00;99.90;;;;;;5047333;28;20747;-85
2024/03/16 07:25:22;;;;;;;2.88;1.30;;;11.00;99.90;;;;;;5057358;28;20408;-85
2024/03/16 07:27:48;;;;;;;2.92;1.00;;;11.10;99.90;;;;;;5047726;28;20395;-85
2024/03/16 07:30:14;;;;;;;4.13;1.50;;;11.20;99.90;;;;;;5035321;28;21020;-85
2024/03/16 07:32:39;;;;;;;3.28;1.10;;;11.20;99.90;;;;;;5050309;28;20392;-85
2024/03/16 07:35:06;;;;;;;3.57;1.60;;;11.30;99.90;;;;;;5066239;28;20465;-85
2024/03/16 07:37:32;;;;;;;4.15;1.10;;;11.30;99.90;;;;;;5061665;28;20397;-85
2024/03/16 07:39:58;;;;;;;3.88;2.00;;;11.10;99.90;;;;;;5060755;28;20378;-85
2024/03/16 07:42:23;;;;;;;5.33;1.20;;;11.30;99.90;;;;;;5054259;28;20492;-83
2024/03/16 07:44:49;;;;;;;5.90;2.20;;;11.20;99.90;;;;;;5046492;28;20424;-84
2024/03/16 07:47:16;;;;;;;5.25;1.77;;;11.30;99.90;;;;;;5045629;28;20410;-85
2024/03/16 07:49:41;;;;;;;4.63;1.50;;;11.30;99.90;;;;;;5057336;28;20866;-85
2024/03/16 07:52:07;;;;;;;3.83;1.40;;;11.30;99.90;;;;;;5060802;28;20502;-84
2024/03/16 07:54:33;;;;;;;3.95;1.73;;;11.00;99.90;;;;;;5050283;28;20418;-84
2024/03/16 07:57:00;;;;;;;4.60;1.58;;;10.50;99.90;;;;;;5052892;28;20399;-85
2024/03/16 07:59:26;;;;;;;5.40;1.57;;;11.30;99.90;;;;;;5055839;28;20420;-84
2024/03/16 08:01:52;;;;;;;3.30;1.47;;;11.30;99.90;;;;;;5066091;28;20474;-82
2024/03/16 08:04:17;;;;;;;3.95;2.00;;;11.40;99.90;;;;;;5038417;28;20398;-84
2024/03/16 08:06:43;;;;;;;6.50;1.83;;;11.70;99.90;;;;;;5037256;28;20412;-84
2024/03/16 08:09:08;;;;;;;6.93;1.90;;;11.30;99.90;;;;;;5036375;28;20389;-84
2024/03/16 08:11:34;;;;;;;6.40;2.00;;;10.90;99.90;;;;;;5056401;28;20496;-83
2024/03/16 08:14:00;;;;;;;4.67;2.20;;;11.40;99.90;;;;;;5018021;28;20407;-83
2024/03/16 08:16:25;;;;;;;6.20;2.20;;;11.40;99.90;;;;;;5054373;28;20457;-83
2024/03/16 08:18:51;;;;;;;6.20;2.20;;;14.20;99.90;;;;;;5056569;28;20522;-84
2024/03/16 08:21:17;;;;;;;4.90;1.75;;;11.30;99.90;;;;;;5039991;23;20505;-84
2024/03/16 08:23:43;;;;;;;5.63;1.75;;;10.50;99.90;;;;;;4998503;28;20398;-81
2024/03/16 08:26:09;;;;;;;5.40;1.70;;;12.70;99.90;;;;;;4997706;28;20913;-81
2024/03/16 08:28:35;;;;;;;5.40;1.60;;;11.30;99.90;;;;;;4996179;28;20415;-81
2024/03/16 08:31:00;;;;;;;2.38;1.45;;;11.40;99.90;;;;;;4999317;28;20401;-79
2024/03/16 08:33:26;;;;;;;5.30;2.43;;;10.90;99.90;;;;;;4994072;28;20464;-81
2024/03/16 08:35:52;;;;;;;3.83;1.50;;;11.50;99.90;;;;;;5001755;28;20415;-83
2024/03/16 08:38:18;;;;;;;4.15;1.40;;;11.70;99.90;;;;;;4995192;28;20471;-82
2024/03/16 08:40:43;;;;;;;5.50;1.80;;;10.80;99.90;;;;;;5002021;28;20885;-81
2024/03/16 08:43:09;;;;;;;5.10;2.20;;;13.10;99.90;;;;;;4997493;28;20499;-80
2024/03/16 08:45:37;;;;;;;3.72;1.90;;;11.50;99.90;;;;;;4998094;28;20445;-83
2024/03/16 08:48:03;;;;;;;4.00;1.60;;;11.90;99.90;;;;;;5001863;28;20447;-79
2024/03/16 08:50:28;;;;;;;3.65;1.70;;;11.80;99.90;;;;;;5001501;28;20418;-80
2024/03/16 08:52:54;;;;;;;7.15;1.80;;;10.50;99.90;;;;;;4999499;28;20917;-80
2024/03/16 08:55:20;;;;;;;3.17;1.52;;;11.20;99.90;;;;;;5021206;28;20869;-83
2024/03/16 08:57:46;;;;;;;5.22;1.70;;;11.00;99.90;;;;;;5002891;28;20438;-81
2024/03/16 09:00:15;;;;;;;4.20;1.60;;;11.10;99.90;;;;;;5000540;28;20385;-80
2024/03/16 09:02:41;;;;;;;5.50;1.80;;;11.10;99.90;;;;;;5001461;28;20394;-82
2024/03/16 09:05:08;;;;;;;6.90;1.50;;;11.10;99.90;;;;;;5000431;28;20898;-81
2024/03/16 09:07:40;;;;;;;6.65;2.15;;;11.10;99.90;;;;;;5000061;28;20402;-83
2024/03/16 09:10:06;;;;;;;6.47;1.85;;;11.20;99.90;;;;;;5001320;28;20399;-81
2024/03/16 09:12:34;;;;;;;6.55;1.83;;;11.10;99.90;;;;;;5020387;28;20392;-84
2024/03/16 09:15:01;;;;;;;5.70;1.60;;;11.30;99.90;;;;;;5002437;28;20777;-81
2024/03/16 09:17:27;;;;;;;4.67;1.50;;;10.80;99.90;;;;;;5000461;28;20755;-82
2024/03/16 09:19:52;;;;;;;2.80;1.40;;;11.20;99.90;;;;;;5015172;28;20400;-81
2024/03/16 09:22:18;;;;;;;5.30;1.43;;;11.50;99.90;;;;;;5020466;28;20381;-81
2024/03/16 09:24:43;;;;;;;5.67;1.70;;;12.40;99.90;;;;;;5010857;28;20391;-80
2024/03/16 09:27:09;;;;;;;4.55;2.10;;;11.40;99.90;;;;;;4998409;28;20405;-83
2024/03/16 09:29:35;;;;;;;5.15;1.65;;;11.40;99.90;;;;;;5009827;28;20408;-82
2024/03/16 09:32:01;;;;;;;8.15;1.73;;;11.40;99.90;;;;;;5018929;28;20427;-82
2024/03/16 09:34:26;;;;;;;5.70;1.60;;;11.50;99.90;;;;;;5020533;28;20409;-82
2024/03/16 09:36:52;;;;;;;3.20;1.60;;;11.60;99.90;;;;;;5021465;28;20389;-82
2024/03/16 09:39:17;;;;;;;7.03;1.50;;;12.90;99.90;;;;;;5020441;28;20384;-81
2024/03/16 09:41:46;;;;;;;3.80;1.70;;;11.60;99.90;;;;;;5027890;28;20400;-82
2024/03/16 09:44:13;;;;;;;3.47;1.67;;;11.70;99.90;;;;;;5026438;28;20411;-81
2024/03/16 09:46:43;;;;;;;5.10;1.60;;;11.50;99.90;;;;;;5028736;28;20397;-81
2024/03/16 09:49:13;;;;;;;4.40;1.80;;;14.10;99.90;;;;;;5028301;28;20389;-80
2024/03/16 09:51:39;;;;;;;3.53;2.00;;;12.20;99.90;;;;;;5021331;28;20392;-81
2024/03/16 09:54:08;;;;;;;5.50;1.70;;;11.70;99.90;;;;;;5007627;28;20418;-82
2024/03/16 09:56:36;;;;;;;6.45;1.80;;;12.10;99.90;;;;;;5005801;28;20430;-83
2024/03/16 09:59:06;;;;;;;4.57;1.40;;;12.00;99.90;;;;;;5003653;28;20441;-81
2024/03/16 10:01:34;;;;;;;3.10;1.33;;;12.00;99.90;;;;;;5003209;28;20397;-79
2024/03/16 10:04:00;;;;;;;5.13;1.70;;;11.80;99.90;;;;;;5026640;28;20384;-82
2024/03/16 10:06:25;;;;;;;5.30;1.60;;;11.90;99.90;;;;;;5024476;28;20482;-81
2024/03/16 10:09:10;;;;;;;7.23;1.73;;;11.40;99.90;;;;;;5017071;28;20392;-81
2024/03/16 10:11:39;;;;;;;3.20;1.75;;;12.20;99.90;;;;;;5016521;28;20447;-83
2024/03/16 10:14:09;;;;;;;4.93;1.85;;;12.40;99.90;;;;;;5026305;28;20405;-84
2024/03/16 10:16:35;;;;;;;3.92;1.60;;;11.60;99.90;;;;;;5019780;28;20429;-81
2024/03/16 10:19:00;;;;;;;7.30;1.30;;;12.60;99.90;;;;;;5017583;28;20381;-81
2024/03/16 10:21:29;;;;;;;4.70;1.53;;;11.90;99.90;;;;;;5018895;28;20450;-81
2024/03/16 10:23:57;;;;;;;5.93;1.48;;;12.70;99.90;;;;;;5020140;28;20893;-82
2024/03/16 10:26:23;;;;;;;3.45;1.40;;;12.40;99.90;;;;;;4997670;28;20879;-81
2024/03/16 10:28:50;;;;;;;5.70;1.20;;;13.00;99.90;;;;;;4998822;28;20401;-81
2024/03/16 10:31:20;;;;;;;5.13;1.88;;;13.20;99.90;;;;;;4994547;28;20891;-82
2024/03/16 10:33:47;;;;;;;3.60;1.50;;;13.20;99.90;;;;;;4996593;28;20407;-82
2024/03/16 10:36:15;;;;;;;4.40;1.30;;;13.20;99.90;;;;;;4998176;28;20379;-81
2024/03/16 10:38:43;;;;;;;4.10;1.48;;;13.10;99.90;;;;;;4997808;28;20444;-80
2024/03/16 10:41:11;;;;;;;3.40;1.38;;;13.00;99.90;;;;;;4996494;28;20984;-82
2024/03/16 10:43:38;;;;;;;4.72;1.50;;;12.90;99.90;;;;;;4995549;28;20406;-85
2024/03/16 10:46:11;;;;;;;4.20;1.70;;;13.00;99.90;;;;;;4995821;28;20422;-85
2024/03/16 10:48:37;;;;;;;6.93;1.67;;;13.20;99.90;;;;;;5004063;28;20420;-82
2024/03/16 10:51:08;;;;;;;3.77;1.20;;;13.10;99.90;;;;;;5010508;23;20435;-84
2024/03/16 10:54:09;;;;;;;1.48;0.90;;;;;;;;;;4987879;28;20419;-87
2024/03/16 10:56:39;;;;;;;5.85;1.50;;;12.90;99.90;;;;;;5007816;28;20399;-87
2024/03/16 10:59:28;;;;;;;4.32;1.40;;;12.80;99.90;;;;;;5008863;28;20435;-84
2024/03/16 11:02:07;;;;;;;2.47;1.60;;;12.80;99.90;;;;;;4964588;28;20414;-85
2024/03/16 11:04:33;;;;;;;3.80;1.30;;;12.60;99.90;;;;;;4983548;28;20419;-87
2024/03/16 11:06:58;;;;;;;3.80;1.70;;;12.40;99.90;;;;;;4975191;28;20409;-83
2024/03/16 11:09:32;;;;;;;2.60;1.80;;;12.20;99.90;;;;;;4975465;28;20397;-82
2024/03/16 11:12:00;;;;;;;2.05;1.10;;;11.70;99.90;;;;;;4974057;28;20386;-87
2024/03/16 11:14:26;;;;;;;2.95;1.20;;;11.90;99.90;;;;;;4969592;28;20423;-84
2024/03/16 11:16:52;;;;;;;2.97;1.30;;;11.80;99.90;;;;;;4973360;28;20421;-84
2024/03/16 11:19:23;;;;;;;3.70;1.33;;;11.70;99.90;;;;;;4972766;28;20418;-86
2024/03/16 11:21:52;;;;;;;2.65;1.10;;;11.60;99.90;;;;;;4991664;28;20417;-82
2024/03/16 11:24:18;;;;;;;2.08;1.20;;;10.50;99.90;;;;;;4973614;29;20394;-83
2024/03/16 11:26:44;;;;;;;3.35;1.20;;;13.60;99.90;;;;;;4975866;28;20401;-84
2024/03/16 11:29:16;;;;;;;3.00;1.10;;;12.10;99.90;;;;;;4973984;28;20412;-83
2024/03/16 11:31:44;;;;;;;2.55;1.10;;;11.60;99.90;;;;;;4971931;28;20390;-84
2024/03/16 11:34:13;;;;;;;3.80;1.33;;;12.20;99.90;;;;;;4967987;28;20413;-88
2024/03/16 11:36:44;;;;;;;3.13;1.10;;;11.10;99.90;;;;;;4967195;29;20397;-84
2024/03/16 11:39:12;;;;;;;1.80;1.30;;;11.60;99.90;;;;;;4977965;28;20430;-80
2024/03/16 11:41:45;;;;;;;1.90;1.05;;;11.70;99.90;;;;;;4962256;28;20521;-80
2024/03/16 11:44:15;;;;;;;2.60;1.17;;;12.50;99.90;;;;;;4962678;29;20405;-81
2024/03/16 11:46:47;;;;;;;1.60;0.90;;;12.80;99.90;;;;;;4960220;28;20407;-83
2024/03/16 11:49:15;;;;;;;4.00;1.02;;;11.90;99.90;;;;;;4969246;28;20416;-84
2024/03/16 11:51:41;;;;;;;3.73;1.20;;;12.00;99.90;;;;;;4963077;29;20413;-84
2024/03/16 11:54:07;;;;;;;1.00;0.77;;;12.20;99.90;;;;;;4961258;28;20423;-86
2024/03/16 11:56:34;;;;;;;3.00;1.20;;;12.40;99.90;;;;;;4963913;29;20392;-84
2024/03/16 11:59:08;;;;;;;3.20;0.90;;;14.30;99.90;;;;;;4980193;28;20487;-88
2024/03/16 12:01:36;;;;;;;2.83;1.50;;;14.00;99.90;;;;;;4964280;29;20396;-86
2024/03/16 12:04:05;;;;;;;2.75;1.00;;;14.90;99.90;;;;;;4961525;29;20430;-87
2024/03/16 12:06:33;;;;;;;1.50;0.70;;;13.50;99.90;;;;;;4962321;29;20406;-87
2024/03/16 12:08:59;;;;;;;1.60;0.70;;;13.10;99.90;;;;;;4968322;28;20533;-85
2024/03/16 12:11:25;;;;;;;2.38;0.75;;;16.70;99.90;;;;;;4970987;28;20787;-85
2024/03/16 12:14:08;;;;;;;1.23;0.60;;;13.50;99.90;;;;;;4971460;28;20437;-87
2024/03/16 12:16:36;;;;;;;1.92;0.70;;;15.90;99.90;;;;;;4972022;29;20489;-87
2024/03/16 12:19:02;;;;;;;2.70;0.70;;;14.50;99.90;;;;;;4977779;28;20422;-87
2024/03/16 12:21:27;;;;;;;2.10;1.02;;;15.50;99.90;;;;;;4971140;28;20451;-86
2024/03/16 12:23:53;;;;;;;3.10;0.95;;;15.70;99.90;;;;;;4970472;29;20405;-80
2024/03/16 12:26:25;;;;;;;1.57;0.77;;;14.40;99.90;;;;;;4968145;28;20397;-80
2024/03/16 12:28:51;;;;;;;1.30;0.60;;;15.00;99.90;;;;;;4971490;28;20457;-81
2024/03/16 12:31:21;;;;;;;1.80;0.88;;;15.30;99.90;;;;;;4988621;28;20406;-81
2024/03/16 12:33:50;;;;;;;1.45;0.88;;;15.30;99.90;;;;;;4974916;29;20407;-83
2024/03/16 12:36:22;;;;;;;2.28;1.10;;;16.50;99.90;;;;;;4971853;29;20394;-84
2024/03/16 12:38:50;;;;;;;1.25;0.75;;;16.50;99.90;;;;;;4974672;28;20394;-80
2024/03/16 12:41:16;;;;;;;0.90;0.60;;;;;;;;;;4972239;29;20408;-82
2024/03/16 12:43:42;;;;;;;0.87;0.60;;;15.90;99.90;;;;;;4971539;29;20812;-81
2024/03/16 12:46:08;;;;;;;1.80;0.50;;;15.70;99.90;;;;;;4967269;29;20393;-82
2024/03/16 12:48:38;;;;;;;1.05;0.50;;;16.30;99.90;;;;;;4982564;28;20401;-83
2024/03/16 12:51:04;;;;;;;1.10;0.60;;;14.80;99.90;;;;;;4982103;28;20468;-83